sensor_id;sensor_type;location;lat;lon;timestamp;pressure;altitude;pressure_sealevel;temperature;humidity
69535;BME280;56754;51.568;5.048;2024-03-17T00:02:05;102270.47;;;11.60;67.32
69535;BME280;56754;51.568;5.048;2024-03-17T00:04:30;102268.59;;;11.60;68.02
69535;BME280;56754;51.568;5.048;2024-03-17T00:06:55;102272.38;;;11.59;67.40
69535;BME280;56754;51.568;5.048;2024-03-17T00:09:21;102258.16;;;11.59;67.67
69535;BME280;56754;51.568;5.048;2024-03-17T00:11:46;102254.97;;;11.57;67.14
69535;BME280;56754;51.568;5.048;2024-03-17T00:14:12;102254.97;;;11.57;67.36
69535;BME280;56754;51.568;5.048;2024-03-17T00:16:37;102252.31;;;11.57;67.44
69535;BME280;56754;51.568;5.048;2024-03-17T00:19:03;102251.47;;;11.56;67.86
69535;BME280;56754;51.568;5.048;2024-03-17T00:21:28;102263.00;;;11.57;67.99
69535;BME280;56754;51.568;5.048;2024-03-17T00:23:53;102249.09;;;11.55;67.73
69535;BME280;56754;51.568;5.048;2024-03-17T00:26:18;102257.13;;;11.55;67.44
69535;BME280;56754;51.568;5.048;2024-03-17T00:28:44;102254.72;;;11.53;67.19
69535;BME280;56754;51.568;5.048;2024-03-17T00:31:09;102257.41;;;11.53;68.15
69535;BME280;56754;51.568;5.048;2024-03-17T00:33:34;102255.81;;;11.52;67.60
69535;BME280;56754;51.568;5.048;2024-03-17T00:36:01;102247.50;;;11.54;68.05
69535;BME280;56754;51.568;5.048;2024-03-17T00:38:26;102249.66;;;11.52;67.60
69535;BME280;56754;51.568;5.048;2024-03-17T00:40:51;102252.59;;;11.50;67.36
69535;BME280;56754;51.568;5.048;2024-03-17T00:43:16;102251.00;;;11.49;67.99
69535;BME280;56754;51.568;5.048;2024-03-17T00:45:42;102244.88;;;11.49;67.42
69535;BME280;56754;51.568;5.048;2024-03-17T00:48:07;102243.28;;;11.48;67.93
69535;BME280;56754;51.568;5.048;2024-03-17T00:50:32;102236.03;;;11.48;67.36
69535;BME280;56754;51.568;5.048;2024-03-17T00:52:58;102242.44;;;11.47;67.50
69535;BME280;56754;51.568;5.048;2024-03-17T00:55:23;102238.97;;;11.47;67.68
69535;BME280;56754;51.568;5.048;2024-03-17T00:57:48;102233.63;;;11.47;67.54
69535;BME280;56754;51.568;5.048;2024-03-17T01:00:14;102232.84;;;11.46;68.05
69535;BME280;56754;51.568;5.048;2024-03-17T01:02:39;102227.78;;;11.45;67.39
69535;BME280;56754;51.568;5.048;2024-03-17T01:05:05;102226.94;;;11.44;67.67
69535;BME280;56754;51.568;5.048;2024-03-17T01:07:30;102220.81;;;11.44;68.19
69535;BME280;56754;51.568;5.048;2024-03-17T01:09:55;102218.13;;;11.44;67.94
69535;BME280;56754;51.568;5.048;2024-03-17T01:12:20;102220.00;;;11.43;67.85
69535;BME280;56754;51.568;5.048;2024-03-17T01:14:52;102214.91;;;11.42;67.43
69535;BME280;56754;51.568;5.048;2024-03-17T01:17:17;102214.91;;;11.42;67.70
69535;BME280;56754;51.568;5.048;2024-03-17T01:19:43;102205.03;;;11.42;67.41
69535;BME280;56754;51.568;5.048;2024-03-17T01:22:08;102201.81;;;11.40;67.76
69535;BME280;56754;51.568;5.048;2024-03-17T01:24:33;102200.25;;;11.39;67.78
69535;BME280;56754;51.568;5.048;2024-03-17T01:26:59;102195.94;;;11.38;67.42
69535;BME280;56754;51.568;5.048;2024-03-17T01:29:24;102199.41;;;11.38;67.72
69535;BME280;56754;51.568;5.048;2024-03-17T01:31:50;102203.19;;;11.37;67.21
69535;BME280;56754;51.568;5.048;2024-03-17T01:34:15;102193.56;;;11.36;67.54
69535;BME280;56754;51.568;5.048;2024-03-17T01:36:40;102189.28;;;11.35;67.85
69535;BME280;56754;51.568;5.048;2024-03-17T01:39:06;102191.16;;;11.35;68.10
69535;BME280;56754;51.568;5.048;2024-03-17T01:41:31;102203.47;;;11.36;67.65
69535;BME280;56754;51.568;5.048;2024-03-17T01:43:56;102189.28;;;11.35;68.04
69535;BME280;56754;51.568;5.048;2024-03-17T01:46:21;102185.00;;;11.34;68.33
69535;BME280;56754;51.568;5.048;2024-03-17T01:48:47;102182.34;;;11.34;67.67
69535;BME280;56754;51.568;5.048;2024-03-17T01:51:14;102184.22;;;11.34;68.23
69535;BME280;56754;51.568;5.048;2024-03-17T01:53:41;102178.88;;;11.34;68.07
69535;BME280;56754;51.568;5.048;2024-03-17T01:56:10;102179.94;;;11.33;67.72
69535;BME280;56754;51.568;5.048;2024-03-17T01:58:36;102178.06;;;11.33;68.01
69535;BME280;56754;51.568;5.048;2024-03-17T02:01:02;102174.31;;;11.34;68.43
69535;BME280;56754;51.568;5.048;2024-03-17T02:03:33;102172.72;;;11.33;68.57
69535;BME280;56754;51.568;5.048;2024-03-17T02:05:58;102168.41;;;11.32;67.92
69535;BME280;56754;51.568;5.048;2024-03-17T02:08:24;102167.63;;;11.32;67.82
69535;BME280;56754;51.568;5.048;2024-03-17T02:10:53;102164.16;;;11.31;68.61
69535;BME280;56754;51.568;5.048;2024-03-17T02:13:19;102173.28;;;11.30;68.08
69535;BME280;56754;51.568;5.048;2024-03-17T02:15:44;102164.72;;;11.28;67.50
69535;BME280;56754;51.568;5.048;2024-03-17T02:18:09;102164.97;;;11.27;68.24
69535;BME280;56754;51.568;5.048;2024-03-17T02:20:35;102158.03;;;11.26;68.15
69535;BME280;56754;51.568;5.048;2024-03-17T02:23:00;102159.13;;;11.25;67.92
69535;BME280;56754;51.568;5.048;2024-03-17T02:25:25;102157.53;;;11.24;68.10
69535;BME280;56754;51.568;5.048;2024-03-17T02:27:50;102150.59;;;11.23;68.28
69535;BME280;56754;51.568;5.048;2024-03-17T02:30:16;102152.47;;;11.22;67.70
69535;BME280;56754;51.568;5.048;2024-03-17T02:32:41;102158.06;;;11.21;67.81
69535;BME280;56754;51.568;5.048;2024-03-17T02:35:07;102147.38;;;11.21;68.34
69535;BME280;56754;51.568;5.048;2024-03-17T02:37:33;102143.13;;;11.20;68.78
69535;BME280;56754;51.568;5.048;2024-03-17T02:39:59;102145.25;;;11.18;67.85
69535;BME280;56754;51.568;5.048;2024-03-17T02:42:24;102140.19;;;11.16;68.07
69535;BME280;56754;51.568;5.048;2024-03-17T02:44:49;102140.47;;;11.14;67.94
69535;BME280;56754;51.568;5.048;2024-03-17T02:47:15;102136.22;;;11.13;67.80
69535;BME280;56754;51.568;5.048;2024-03-17T02:49:40;102138.88;;;11.13;68.29
69535;BME280;56754;51.568;5.048;2024-03-17T02:52:07;102136.22;;;11.13;68.37
69535;BME280;56754;51.568;5.048;2024-03-17T02:54:33;102139.97;;;11.12;68.80
69535;BME280;56754;51.568;5.048;2024-03-17T02:56:58;102136.22;;;11.13;68.46
69535;BME280;56754;51.568;5.048;2024-03-17T02:59:24;102133.00;;;11.11;68.02
69535;BME280;56754;51.568;5.048;2024-03-17T03:01:49;102134.63;;;11.12;68.44
69535;BME280;56754;51.568;5.048;2024-03-17T03:04:15;102134.63;;;11.12;68.47
69535;BME280;56754;51.568;5.048;2024-03-17T03:06:40;102130.84;;;11.13;68.67
69535;BME280;56754;51.568;5.048;2024-03-17T03:09:05;102127.66;;;11.11;68.02
69535;BME280;56754;51.568;5.048;2024-03-17T03:11:31;102131.94;;;11.12;68.45
69535;BME280;56754;51.568;5.048;2024-03-17T03:13:56;102135.69;;;11.11;68.88
69535;BME280;56754;51.568;5.048;2024-03-17T03:16:21;102128.44;;;11.12;68.60
69535;BME280;56754;51.568;5.048;2024-03-17T03:18:46;102126.59;;;11.12;68.83
69535;BME280;56754;51.568;5.048;2024-03-17T03:21:12;102125.78;;;11.12;68.75
69535;BME280;56754;51.568;5.048;2024-03-17T03:23:40;102124.72;;;11.13;68.40
69535;BME280;56754;51.568;5.048;2024-03-17T03:26:05;102122.31;;;11.11;68.47
69535;BME280;56754;51.568;5.048;2024-03-17T03:28:33;102115.06;;;11.12;68.70
69535;BME280;56754;51.568;5.048;2024-03-17T03:30:58;102107.88;;;11.12;68.60
69535;BME280;56754;51.568;5.048;2024-03-17T03:33:24;102114.00;;;11.13;68.78
69535;BME280;56754;51.568;5.048;2024-03-17T03:35:49;102102.50;;;11.12;68.55
69535;BME280;56754;51.568;5.048;2024-03-17T03:38:15;102100.09;;;11.11;68.49
69535;BME280;56754;51.568;5.048;2024-03-17T03:40:43;102093.16;;;11.10;68.66
69535;BME280;56754;51.568;5.048;2024-03-17T03:43:09;102089.69;;;11.09;68.54
69535;BME280;56754;51.568;5.048;2024-03-17T03:45:35;102086.19;;;11.09;68.53
69535;BME280;56754;51.568;5.048;2024-03-17T03:48:02;102081.94;;;11.08;68.68
69535;BME280;56754;51.568;5.048;2024-03-17T03:50:27;102086.50;;;11.07;68.87
69535;BME280;56754;51.568;5.048;2024-03-17T03:52:52;102084.63;;;11.08;68.77
69535;BME280;56754;51.568;5.048;2024-03-17T03:55:18;102077.94;;;11.05;68.62
69535;BME280;56754;51.568;5.048;2024-03-17T03:57:44;102075.56;;;11.04;68.40
69535;BME280;56754;51.568;5.048;2024-03-17T04:00:10;102080.91;;;11.04;68.74
69535;BME280;56754;51.568;5.048;2024-03-17T04:02:35;102075.03;;;11.02;68.53
69535;BME280;56754;51.568;5.048;2024-03-17T04:05:00;102072.63;;;11.00;68.67
69535;BME280;56754;51.568;5.048;2024-03-17T04:07:25;102072.94;;;10.99;68.67
69535;BME280;56754;51.568;5.048;2024-03-17T04:09:51;102064.09;;;10.98;68.94
69535;BME280;56754;51.568;5.048;2024-03-17T04:12:16;102069.72;;;10.97;69.26
69535;BME280;56754;51.568;5.048;2024-03-17T04:14:41;102071.59;;;10.96;68.64
69535;BME280;56754;51.568;5.048;2024-03-17T04:17:07;102061.19;;;10.95;69.04
69535;BME280;56754;51.568;5.048;2024-03-17T04:19:32;102064.66;;;10.95;69.60
69535;BME280;56754;51.568;5.048;2024-03-17T04:21:57;102064.13;;;10.93;69.11
69535;BME280;56754;51.568;5.048;2024-03-17T04:24:23;102073.25;;;10.92;68.63
69535;BME280;56754;51.568;5.048;2024-03-17T04:26:48;102064.44;;;10.91;69.41
69535;BME280;56754;51.568;5.048;2024-03-17T04:29:13;102060.94;;;10.91;69.35
69535;BME280;56754;51.568;5.048;2024-03-17T04:31:38;102055.88;;;10.89;68.75
69535;BME280;56754;51.568;5.048;2024-03-17T04:34:04;102070.06;;;10.90;69.25
69535;BME280;56754;51.568;5.048;2024-03-17T04:36:29;102070.34;;;10.88;69.04
69535;BME280;56754;51.568;5.048;2024-03-17T04:38:55;102063.38;;;10.87;68.98
69535;BME280;56754;51.568;5.048;2024-03-17T04:41:21;102065.25;;;10.87;70.11
69535;BME280;56754;51.568;5.048;2024-03-17T04:43:46;102069.81;;;10.86;68.79
69535;BME280;56754;51.568;5.048;2024-03-17T04:46:11;102051.38;;;10.85;68.94
69535;BME280;56754;51.568;5.048;2024-03-17T04:48:40;102054.34;;;10.83;69.25
69535;BME280;56754;51.568;5.048;2024-03-17T04:51:05;102059.94;;;10.82;69.47
69535;BME280;56754;51.568;5.048;2024-03-17T04:53:30;102053.81;;;10.81;69.09
69535;BME280;56754;51.568;5.048;2024-03-17T04:56:02;102045.00;;;10.81;69.16
69535;BME280;56754;51.568;5.048;2024-03-17T04:58:28;102053.00;;;10.81;68.97
69535;BME280;56754;51.568;5.048;2024-03-17T05:00:53;102048.75;;;10.80;68.93
69535;BME280;56754;51.568;5.048;2024-03-17T05:03:18;102047.13;;;10.79;69.00
69535;BME280;56754;51.568;5.048;2024-03-17T05:05:44;102049.81;;;10.79;69.41
69535;BME280;56754;51.568;5.048;2024-03-17T05:08:09;102051.44;;;10.80;69.74
69535;BME280;56754;51.568;5.048;2024-03-17T05:10:34;102048.75;;;10.80;69.25
69535;BME280;56754;51.568;5.048;2024-03-17T05:12:59;102051.44;;;10.80;69.61
69535;BME280;56754;51.568;5.048;2024-03-17T05:15:25;102046.09;;;10.80;69.83
69535;BME280;56754;51.568;5.048;2024-03-17T05:17:50;102049.56;;;10.80;69.38
69535;BME280;56754;51.568;5.048;2024-03-17T05:20:15;102044.69;;;10.82;70.39
69535;BME280;56754;51.568;5.048;2024-03-17T05:22:41;102039.34;;;10.82;69.63
69535;BME280;56754;51.568;5.048;2024-03-17T05:25:06;102031.84;;;10.84;69.43
69535;BME280;56754;51.568;5.048;2024-03-17T05:27:31;102032.94;;;10.83;69.09
69535;BME280;56754;51.568;5.048;2024-03-17T05:29:56;102032.66;;;10.85;69.16
69535;BME280;56754;51.568;5.048;2024-03-17T05:32:22;102022.75;;;10.85;69.56
69535;BME280;56754;51.568;5.048;2024-03-17T05:34:47;102027.28;;;10.85;68.91
69535;BME280;56754;51.568;5.048;2024-03-17T05:37:12;102039.59;;;10.86;69.20
69535;BME280;56754;51.568;5.048;2024-03-17T05:39:38;102037.19;;;10.84;68.72
69535;BME280;56754;51.568;5.048;2024-03-17T05:42:03;102039.09;;;10.84;68.73
69535;BME280;56754;51.568;5.048;2024-03-17T05:44:28;102039.88;;;10.84;69.05
69535;BME280;56754;51.568;5.048;2024-03-17T05:46:53;102037.72;;;10.86;69.11
69535;BME280;56754;51.568;5.048;2024-03-17T05:49:19;102032.38;;;10.86;69.42
69535;BME280;56754;51.568;5.048;2024-03-17T05:51:44;102041.19;;;10.87;69.11
69535;BME280;56754;51.568;5.048;2024-03-17T05:54:09;102040.41;;;10.86;69.07
69535;BME280;56754;51.568;5.048;2024-03-17T05:56:34;102043.88;;;10.87;69.48
69535;BME280;56754;51.568;5.048;2024-03-17T05:59:00;102047.34;;;10.87;68.59
69535;BME280;56754;51.568;5.048;2024-03-17T06:01:25;102039.84;;;10.89;69.00
69535;BME280;56754;51.568;5.048;2024-03-17T06:03:50;102052.13;;;10.90;69.08
69535;BME280;56754;51.568;5.048;2024-03-17T06:06:16;102052.91;;;10.91;69.65
69535;BME280;56754;51.568;5.048;2024-03-17T06:08:41;102041.44;;;10.90;68.72
69535;BME280;56754;51.568;5.048;2024-03-17T06:11:06;102042.22;;;10.91;68.85
69535;BME280;56754;51.568;5.048;2024-03-17T06:13:31;102044.63;;;10.92;68.60
69535;BME280;56754;51.568;5.048;2024-03-17T06:15:57;102041.94;;;10.92;69.09
69535;BME280;56754;51.568;5.048;2024-03-17T06:18:22;102050.50;;;10.95;68.93
69535;BME280;56754;51.568;5.048;2024-03-17T06:20:47;102047.53;;;10.96;69.12
69535;BME280;56754;51.568;5.048;2024-03-17T06:23:16;102053.66;;;10.97;68.70
69535;BME280;56754;51.568;5.048;2024-03-17T06:25:46;102060.63;;;10.98;68.80
69535;BME280;56754;51.568;5.048;2024-03-17T06:28:13;102064.91;;;10.99;68.72
69535;BME280;56754;51.568;5.048;2024-03-17T06:30:38;102061.94;;;11.00;68.89
69535;BME280;56754;51.568;5.048;2024-03-17T06:33:04;102058.19;;;11.01;68.87
69535;BME280;56754;51.568;5.048;2024-03-17T06:35:29;102051.75;;;11.02;68.27
69535;BME280;56754;51.568;5.048;2024-03-17T06:37:54;102048.81;;;11.04;69.54
69535;BME280;56754;51.568;5.048;2024-03-17T06:40:19;102042.09;;;11.06;68.93
69535;BME280;56754;51.568;5.048;2024-03-17T06:42:45;102045.28;;;11.08;68.36
69535;BME280;56754;51.568;5.048;2024-03-17T06:45:10;102048.75;;;11.09;68.69
69535;BME280;56754;51.568;5.048;2024-03-17T06:47:38;102046.59;;;11.11;68.74
69535;BME280;56754;51.568;5.048;2024-03-17T06:50:05;102040.16;;;11.12;69.11
69535;BME280;56754;51.568;5.048;2024-03-17T06:52:31;102041.47;;;11.14;69.28
69535;BME280;56754;51.568;5.048;2024-03-17T06:54:56;102033.97;;;11.16;68.67
69535;BME280;56754;51.568;5.048;2024-03-17T06:57:22;102029.91;;;11.19;68.68
69535;BME280;56754;51.568;5.048;2024-03-17T06:59:47;102030.44;;;11.21;68.72
69535;BME280;56754;51.568;5.048;2024-03-17T07:02:12;102032.81;;;11.23;68.25
69535;BME280;56754;51.568;5.048;2024-03-17T07:04:38;102023.69;;;11.24;67.83
69535;BME280;56754;51.568;5.048;2024-03-17T07:07:03;102024.75;;;11.28;68.41
69535;BME280;56754;51.568;5.048;2024-03-17T07:09:28;102034.88;;;11.31;68.24
69535;BME280;56754;51.568;5.048;2024-03-17T07:11:53;102034.31;;;11.34;68.28
69535;BME280;56754;51.568;5.048;2024-03-17T07:14:19;102030.28;;;11.36;67.51
69535;BME280;56754;51.568;5.048;2024-03-17T07:16:44;102020.06;;;11.38;67.85
69535;BME280;56754;51.568;5.048;2024-03-17T07:19:09;102025.66;;;11.42;67.60
69535;BME280;56754;51.568;5.048;2024-03-17T07:21:34;102030.44;;;11.45;67.56
69535;BME280;56754;51.568;5.048;2024-03-17T07:24:00;102028.25;;;11.47;67.30
69535;BME280;56754;51.568;5.048;2024-03-17T07:26:25;102026.91;;;11.50;67.67
69535;BME280;56754;51.568;5.048;2024-03-17T07:28:50;102023.94;;;11.51;67.28
69535;BME280;56754;51.568;5.048;2024-03-17T07:31:16;102024.44;;;11.53;66.99
69535;BME280;56754;51.568;5.048;2024-03-17T07:33:41;102022.28;;;11.55;67.10
69535;BME280;56754;51.568;5.048;2024-03-17T07:36:07;102017.44;;;11.57;66.99
69535;BME280;56754;51.568;5.048;2024-03-17T07:38:33;102017.97;;;11.59;67.44
69535;BME280;56754;51.568;5.048;2024-03-17T07:41:08;102024.59;;;11.62;66.75
69535;BME280;56754;51.568;5.048;2024-03-17T07:43:38;102020.88;;;11.63;66.73
69535;BME280;56754;51.568;5.048;2024-03-17T07:46:07;102019.78;;;11.64;66.93
69535;BME280;56754;51.568;5.048;2024-03-17T07:48:34;102029.91;;;11.67;67.01
69535;BME280;56754;51.568;5.048;2024-03-17T07:53:30;102032.00;;;11.70;66.44
69535;BME280;56754;51.568;5.048;2024-03-17T07:56:09;102031.75;;;11.72;66.38
69535;BME280;56754;51.568;5.048;2024-03-17T07:58:36;102030.66;;;11.73;66.26
69535;BME280;56754;51.568;5.048;2024-03-17T08:01:04;102033.84;;;11.75;66.45
69535;BME280;56754;51.568;5.048;2024-03-17T08:03:31;102026.28;;;11.77;66.34
69535;BME280;56754;51.568;5.048;2024-03-17T08:06:07;102042.88;;;11.79;66.40
69535;BME280;56754;51.568;5.048;2024-03-17T08:08:33;102030.00;;;11.81;66.25
69535;BME280;56754;51.568;5.048;2024-03-17T08:10:58;102037.47;;;11.84;66.07
69535;BME280;56754;51.568;5.048;2024-03-17T08:13:24;102036.94;;;11.87;66.49
69535;BME280;56754;51.568;5.048;2024-03-17T08:15:58;102040.34;;;11.93;66.51
69535;BME280;56754;51.568;5.048;2024-03-17T08:18:23;102036.50;;;11.99;66.06
69535;BME280;56754;51.568;5.048;2024-03-17T08:20:50;102030.25;;;12.03;65.90
69535;BME280;56754;51.568;5.048;2024-03-17T08:23:15;102029.69;;;12.06;66.12
69535;BME280;56754;51.568;5.048;2024-03-17T08:25:40;102022.97;;;12.09;65.83
69535;BME280;56754;51.568;5.048;2024-03-17T08:28:06;102028.03;;;12.11;65.63
69535;BME280;56754;51.568;5.048;2024-03-17T08:30:31;102032.31;;;12.12;65.45
69535;BME280;56754;51.568;5.048;2024-03-17T08:32:57;102029.63;;;12.12;65.25
69535;BME280;56754;51.568;5.048;2024-03-17T08:35:23;102023.19;;;12.13;65.28
69535;BME280;56754;51.568;5.048;2024-03-17T08:37:49;102019.41;;;12.14;65.07
69535;BME280;56754;51.568;5.048;2024-03-17T08:40:14;102022.88;;;12.14;65.08
69535;BME280;56754;51.568;5.048;2024-03-17T08:42:40;102027.97;;;12.16;64.82
69535;BME280;56754;51.568;5.048;2024-03-17T08:45:05;102030.34;;;12.17;65.06
69535;BME280;56754;51.568;5.048;2024-03-17T08:47:32;102022.03;;;12.19;64.72
69535;BME280;56754;51.568;5.048;2024-03-17T08:49:57;102025.19;;;12.21;65.00
69535;BME280;56754;51.568;5.048;2024-03-17T08:52:23;102016.09;;;12.22;64.92
69535;BME280;56754;51.568;5.048;2024-03-17T08:54:48;102023.81;;;12.23;64.83
69535;BME280;56754;51.568;5.048;2024-03-17T08:57:14;102018.97;;;12.25;64.83
69535;BME280;56754;51.568;5.048;2024-03-17T08:59:39;102011.72;;;12.26;64.82
69535;BME280;56754;51.568;5.048;2024-03-17T09:02:05;102013.63;;;12.25;64.18
69535;BME280;56754;51.568;5.048;2024-03-17T09:04:35;102007.16;;;12.26;64.20
69535;BME280;56754;51.568;5.048;2024-03-17T09:07:00;102006.38;;;12.26;64.25
69535;BME280;56754;51.568;5.048;2024-03-17T09:09:26;102004.47;;;12.26;64.26
69535;BME280;56754;51.568;5.048;2024-03-17T09:11:51;101998.06;;;12.27;64.14
69535;BME280;56754;51.568;5.048;2024-03-17T09:14:16;102003.09;;;12.29;64.05
69535;BME280;56754;51.568;5.048;2024-03-17T09:16:42;102004.69;;;12.30;64.29
69535;BME280;56754;51.568;5.048;2024-03-17T09:19:08;101999.03;;;12.32;64.12
69535;BME280;56754;51.568;5.048;2024-03-17T09:21:34;101998.75;;;12.33;64.32
69535;BME280;56754;51.568;5.048;2024-03-17T09:23:59;101998.47;;;12.35;64.20
69535;BME280;56754;51.568;5.048;2024-03-17T09:26:24;101997.09;;;12.37;64.22
69535;BME280;56754;51.568;5.048;2024-03-17T09:28:49;102000.25;;;12.39;64.28
69535;BME280;56754;51.568;5.048;2024-03-17T09:31:15;101996.50;;;12.40;64.30
69535;BME280;56754;51.568;5.048;2024-03-17T09:33:40;101996.19;;;12.42;64.04
69535;BME280;56754;51.568;5.048;2024-03-17T09:36:07;101999.09;;;12.45;64.09
69535;BME280;56754;51.568;5.048;2024-03-17T09:38:34;101991.84;;;12.46;64.12
69535;BME280;56754;51.568;5.048;2024-03-17T09:41:00;101990.47;;;12.48;64.28
69535;BME280;56754;51.568;5.048;2024-03-17T09:43:25;101990.97;;;12.50;64.18
69535;BME280;56754;51.568;5.048;2024-03-17T09:45:51;101993.88;;;12.54;64.33
69535;BME280;56754;51.568;5.048;2024-03-17T09:48:17;101997.81;;;12.57;64.09
69535;BME280;56754;51.568;5.048;2024-03-17T09:50:51;101997.25;;;12.60;63.99
69535;BME280;56754;51.568;5.048;2024-03-17T09:53:17;102002.00;;;12.63;64.10
69535;BME280;56754;51.568;5.048;2024-03-17T09:55:44;101991.81;;;12.65;64.40
69535;BME280;56754;51.568;5.048;2024-03-17T09:58:15;101983.47;;;12.66;64.04
69535;BME280;56754;51.568;5.048;2024-03-17T10:00:41;101993.91;;;12.68;64.21
69535;BME280;56754;51.568;5.048;2024-03-17T10:03:06;101993.31;;;12.71;63.90
69535;BME280;56754;51.568;5.048;2024-03-17T10:05:31;101990.34;;;12.72;64.07
69535;BME280;56754;51.568;5.048;2024-03-17T10:07:57;101994.31;;;12.75;64.02
69535;BME280;56754;51.568;5.048;2024-03-17T10:10:22;101989.75;;;12.75;64.14
69535;BME280;56754;51.568;5.048;2024-03-17T10:12:51;101989.16;;;12.79;63.86
69535;BME280;56754;51.568;5.048;2024-03-17T10:15:17;101984.28;;;12.81;64.04
69535;BME280;56754;51.568;5.048;2024-03-17T10:17:43;101980.22;;;12.83;64.11
69535;BME280;56754;51.568;5.048;2024-03-17T10:22:40;101980.44;;;12.87;64.05
69535;BME280;56754;51.568;5.048;2024-03-17T10:25:08;101981.69;;;12.89;63.94
69535;BME280;56754;51.568;5.048;2024-03-17T10:27:34;101967.69;;;12.92;64.65
69535;BME280;56754;51.568;5.048;2024-03-17T10:30:00;101970.09;;;12.94;64.15
69535;BME280;56754;51.568;5.048;2024-03-17T10:32:25;101967.13;;;12.95;64.02
69535;BME280;56754;51.568;5.048;2024-03-17T10:34:50;101976.44;;;12.98;64.20
69535;BME280;56754;51.568;5.048;2024-03-17T10:37:18;101971.59;;;13.00;64.27
69535;BME280;56754;51.568;5.048;2024-03-17T10:39:44;101975.06;;;13.01;64.03
69535;BME280;56754;51.568;5.048;2024-03-17T10:42:10;101962.94;;;13.03;64.38
69535;BME280;56754;51.568;5.048;2024-03-17T10:44:37;101969.88;;;13.04;64.21
69535;BME280;56754;51.568;5.048;2024-03-17T10:47:03;101955.09;;;13.07;64.20
69535;BME280;56754;51.568;5.048;2024-03-17T10:49:31;101961.25;;;13.07;63.95
69535;BME280;56754;51.568;5.048;2024-03-17T10:51:58;101969.00;;;13.09;64.41
69535;BME280;56754;51.568;5.048;2024-03-17T10:54:25;101967.13;;;13.09;64.25
69535;BME280;56754;51.568;5.048;2024-03-17T10:56:53;101967.63;;;13.11;63.94
69535;BME280;56754;51.568;5.048;2024-03-17T10:59:22;101968.13;;;13.13;64.12
69535;BME280;56754;51.568;5.048;2024-03-17T11:01:51;101967.81;;;13.15;63.97
69535;BME280;56754;51.568;5.048;2024-03-17T11:04:17;101969.41;;;13.16;64.32
69535;BME280;56754;51.568;5.048;2024-03-17T11:06:42;101966.44;;;13.17;64.22
69535;BME280;56754;51.568;5.048;2024-03-17T11:09:13;101969.91;;;13.18;64.28
69535;BME280;56754;51.568;5.048;2024-03-17T11:11:40;101968.00;;;13.18;64.27
69535;BME280;56754;51.568;5.048;2024-03-17T11:14:18;101966.94;;;13.19;64.10
69535;BME280;56754;51.568;5.048;2024-03-17T11:16:44;101965.03;;;13.20;64.21
69535;BME280;56754;51.568;5.048;2024-03-17T11:19:15;101966.94;;;13.19;64.32
69535;BME280;56754;51.568;5.048;2024-03-17T11:21:40;101965.03;;;13.20;64.32
69535;BME280;56754;51.568;5.048;2024-03-17T11:24:05;101965.81;;;13.20;64.41
69535;BME280;56754;51.568;5.048;2024-03-17T11:26:33;101962.03;;;13.21;64.52
69535;BME280;56754;51.568;5.048;2024-03-17T11:28:59;101964.72;;;13.21;64.38
69535;BME280;56754;51.568;5.048;2024-03-17T11:31:38;101957.47;;;13.22;64.61
69535;BME280;56754;51.568;5.048;2024-03-17T11:34:05;101951.03;;;13.23;64.31
69535;BME280;56754;51.568;5.048;2024-03-17T11:39:08;101960.66;;;13.24;64.51
69535;BME280;56754;51.568;5.048;2024-03-17T11:46:43;101934.59;;;13.25;64.70
69535;BME280;56754;51.568;5.048;2024-03-17T11:49:24;101937.81;;;13.27;64.68
69535;BME280;56754;51.568;5.048;2024-03-17T11:51:50;101940.50;;;13.27;64.75
69535;BME280;56754;51.568;5.048;2024-03-17T11:54:21;101934.84;;;13.28;64.81
69535;BME280;56754;51.568;5.048;2024-03-17T11:56:49;101927.88;;;13.27;64.82
69535;BME280;56754;51.568;5.048;2024-03-17T11:59:15;101929.47;;;13.28;64.75
69535;BME280;56754;51.568;5.048;2024-03-17T12:01:40;101915.22;;;13.28;65.23
69535;BME280;56754;51.568;5.048;2024-03-17T12:04:07;101917.63;;;13.29;64.84
69535;BME280;56754;51.568;5.048;2024-03-17T12:06:32;101907.41;;;13.31;65.18
69535;BME280;56754;51.568;5.048;2024-03-17T12:09:27;101908.66;;;13.34;64.98
69535;BME280;56754;51.568;5.048;2024-03-17T12:12:03;101911.34;;;13.34;65.00
69535;BME280;56754;51.568;5.048;2024-03-17T12:14:28;101914.53;;;13.36;65.09
69535;BME280;56754;51.568;5.048;2024-03-17T12:17:07;101905.41;;;13.37;65.12
69535;BME280;56754;51.568;5.048;2024-03-17T12:19:33;101905.41;;;13.37;65.13
69535;BME280;56754;51.568;5.048;2024-03-17T12:21:59;101899.72;;;13.38;65.06
69535;BME280;56754;51.568;5.048;2024-03-17T12:24:30;101902.41;;;13.38;65.13
69535;BME280;56754;51.568;5.048;2024-03-17T12:26:57;101898.31;;;13.41;65.10
69535;BME280;56754;51.568;5.048;2024-03-17T12:31:57;101894.22;;;13.43;65.09
69535;BME280;56754;51.568;5.048;2024-03-17T12:34:25;101892.03;;;13.46;65.36
69535;BME280;56754;51.568;5.048;2024-03-17T12:36:51;101889.84;;;13.48;65.03
69535;BME280;56754;51.568;5.048;2024-03-17T12:39:34;101888.44;;;13.50;65.06
69535;BME280;56754;51.568;5.048;2024-03-17T12:42:10;101885.47;;;13.52;65.13
69535;BME280;56754;51.568;5.048;2024-03-17T12:47:03;101874.72;;;13.52;64.92
69535;BME280;56754;51.568;5.048;2024-03-17T12:49:30;101872.03;;;13.52;65.22
69535;BME280;56754;51.568;5.048;2024-03-17T12:51:56;101871.44;;;13.55;65.29
69535;BME280;56754;51.568;5.048;2024-03-17T12:54:24;101864.94;;;13.56;65.33
69535;BME280;56754;51.568;5.048;2024-03-17T12:56:51;101860.88;;;13.58;65.19
69535;BME280;56754;51.568;5.048;2024-03-17T12:59:16;101865.13;;;13.59;65.22
69535;BME280;56754;51.568;5.048;2024-03-17T13:01:41;101863.72;;;13.62;65.55
69535;BME280;56754;51.568;5.048;2024-03-17T13:04:07;101865.31;;;13.63;65.35